createdAt,value
2022-12-05T00:00:30.886Z,3.74
2022-12-05T00:01:30.852Z,3.74
2022-12-05T00:02:30.874Z,3.70
2022-12-05T00:03:30.837Z,3.70
2022-12-05T00:04:30.931Z,3.69
2022-12-05T00:05:30.824Z,3.68
2022-12-05T00:06:30.813Z,3.68
2022-12-05T00:07:30.815Z,3.69
2022-12-05T00:08:30.777Z,3.68
2022-12-05T00:09:30.793Z,3.69
2022-12-05T00:10:30.779Z,3.69
2022-12-05T00:11:30.748Z,3.68
2022-12-05T00:12:30.734Z,3.69
2022-12-05T00:13:30.749Z,3.70
2022-12-05T00:14:30.713Z,3.69
2022-12-05T00:15:30.716Z,3.68
2022-12-05T00:16:30.838Z,3.68
2022-12-05T00:17:30.710Z,3.66
2022-12-05T00:18:30.660Z,3.66
2022-12-05T00:19:30.688Z,3.65
2022-12-05T00:20:30.669Z,3.66
2022-12-05T00:21:30.702Z,3.66
2022-12-05T00:22:30.643Z,3.65
2022-12-05T00:23:30.634Z,3.62
2022-12-05T00:24:30.681Z,3.62
2022-12-05T00:25:30.705Z,3.59
2022-12-05T00:26:30.585Z,3.59
2022-12-05T00:27:30.592Z,3.60
2022-12-05T00:28:30.591Z,3.62
2022-12-05T00:29:30.588Z,3.60
2022-12-05T00:30:30.599Z,3.60
2022-12-05T00:31:30.652Z,3.60
2022-12-05T00:32:31.312Z,3.62
2022-12-05T00:33:30.563Z,3.62
2022-12-05T00:34:30.505Z,3.63
2022-12-05T00:35:30.506Z,3.62
2022-12-05T00:36:30.475Z,3.65
2022-12-05T00:37:30.516Z,3.63
2022-12-05T00:38:30.471Z,3.62
2022-12-05T00:39:30.474Z,3.59
2022-12-05T00:40:30.447Z,3.58
2022-12-05T00:41:30.436Z,3.59
2022-12-05T00:42:30.451Z,3.59
2022-12-05T00:43:30.444Z,3.60
2022-12-05T00:44:30.413Z,3.59
2022-12-05T00:45:30.418Z,3.59
2022-12-05T00:46:30.506Z,3.60
2022-12-05T00:47:30.384Z,3.62
2022-12-05T00:48:30.407Z,3.62
2022-12-05T00:49:30.350Z,3.62
2022-12-05T00:50:30.343Z,3.60
2022-12-05T00:51:30.338Z,3.63
2022-12-05T00:52:30.321Z,3.62
2022-12-05T00:53:30.305Z,3.65
2022-12-05T00:54:30.302Z,3.66
2022-12-05T00:55:30.287Z,3.65
2022-12-05T00:56:30.295Z,3.66
2022-12-05T00:57:30.283Z,3.66
2022-12-05T00:58:30.262Z,3.65
2022-12-05T00:59:30.257Z,3.66
2022-12-05T01:00:30.221Z,3.66
2022-12-05T01:01:30.353Z,3.66
2022-12-05T01:02:30.265Z,3.69
2022-12-05T01:03:30.250Z,3.66
2022-12-05T01:04:30.179Z,3.66
2022-12-05T01:05:30.195Z,3.65
2022-12-05T01:06:30.161Z,3.66
2022-12-05T01:07:30.260Z,3.65
2022-12-05T01:08:30.165Z,3.65
2022-12-05T01:09:30.149Z,3.65
2022-12-05T01:10:30.123Z,3.65
2022-12-05T01:11:30.131Z,3.63
2022-12-05T01:12:30.115Z,3.63
2022-12-05T01:13:30.098Z,3.62
2022-12-05T01:14:30.088Z,3.60
2022-12-05T01:15:30.084Z,3.59
2022-12-05T01:16:30.161Z,3.56
2022-12-05T01:17:30.064Z,3.59
2022-12-05T01:18:30.057Z,3.65
2022-12-05T01:19:30.069Z,3.65
2022-12-05T01:20:30.023Z,3.66
2022-12-05T01:21:30.013Z,3.66
2022-12-05T01:22:30.002Z,3.65
2022-12-05T01:23:30.002Z,3.66
2022-12-05T01:24:29.983Z,3.66
2022-12-05T01:25:29.977Z,3.66
2022-12-05T01:26:29.945Z,3.68
2022-12-05T01:27:29.954Z,3.66
2022-12-05T01:28:30.008Z,3.69
2022-12-05T01:29:29.944Z,3.68
2022-12-05T01:30:29.919Z,3.69
2022-12-05T01:31:29.985Z,3.70
2022-12-05T01:32:29.936Z,3.70
2022-12-05T01:33:29.889Z,3.70
2022-12-05T01:34:29.917Z,3.70
2022-12-05T01:35:29.899Z,3.73
2022-12-05T01:36:29.848Z,3.74
2022-12-05T01:37:29.879Z,3.74
2022-12-05T01:38:29.826Z,3.74
2022-12-05T01:39:29.829Z,3.77
2022-12-05T01:40:29.806Z,3.77
2022-12-05T01:41:29.839Z,3.77
2022-12-05T01:42:29.776Z,3.78
2022-12-05T01:43:29.831Z,3.80
2022-12-05T01:44:29.823Z,3.81
2022-12-05T01:45:29.833Z,3.80
2022-12-05T01:46:29.834Z,3.78
2022-12-05T01:47:29.747Z,3.80
2022-12-05T01:48:29.721Z,3.83
2022-12-05T01:49:29.770Z,3.81
2022-12-05T01:50:29.698Z,3.83
2022-12-05T01:51:29.709Z,3.81
2022-12-05T01:52:29.681Z,3.84
2022-12-05T01:53:29.699Z,3.84
2022-12-05T01:54:29.745Z,3.83
2022-12-05T01:55:29.712Z,3.80
2022-12-05T01:56:29.641Z,3.80
2022-12-05T01:57:29.652Z,3.78
2022-12-05T01:58:29.614Z,3.77
2022-12-05T01:59:29.655Z,3.78
2022-12-05T02:00:29.674Z,3.76
2022-12-05T02:01:29.644Z,3.80
2022-12-05T02:02:29.659Z,3.78
2022-12-05T02:03:29.574Z,3.81
2022-12-05T02:04:29.553Z,3.81
2022-12-05T02:05:29.574Z,3.81
2022-12-05T02:06:29.549Z,3.81
2022-12-05T02:07:29.548Z,3.83
2022-12-05T02:08:29.514Z,3.81
2022-12-05T02:09:29.521Z,3.80
2022-12-05T06:00:54.440Z,3.96
2022-12-05T06:01:55.398Z,3.95
2022-12-05T06:02:55.514Z,3.96
2022-12-05T06:03:55.528Z,3.98
2022-12-05T06:04:55.378Z,3.99
2022-12-05T06:05:55.368Z,4.01
2022-12-05T06:06:55.352Z,4.02
2022-12-05T06:07:55.393Z,4.04
2022-12-05T06:08:55.367Z,4.02
2022-12-05T06:09:55.572Z,4.04
2022-12-05T06:10:55.320Z,4.04
2022-12-05T06:11:55.319Z,4.04
2022-12-05T06:12:55.307Z,4.02
2022-12-05T06:13:55.302Z,4.01
2022-12-05T06:14:55.296Z,3.99
2022-12-05T06:15:55.322Z,3.99
2022-12-05T06:16:55.362Z,3.98
2022-12-05T06:17:55.230Z,3.98
2022-12-05T06:18:55.243Z,3.98
2022-12-05T06:19:55.580Z,3.96
2022-12-05T06:20:55.220Z,3.98
2022-12-05T06:21:55.185Z,3.96
2022-12-05T06:22:55.203Z,3.95
2022-12-05T06:23:55.171Z,3.96
2022-12-05T06:24:55.180Z,3.96
2022-12-05T06:25:55.196Z,3.96
2022-12-05T06:26:55.148Z,3.98
2022-12-05T06:27:55.131Z,3.96
2022-12-05T06:28:55.129Z,3.96
2022-12-05T06:29:55.296Z,3.96
2022-12-05T06:30:55.112Z,3.98
2022-12-05T06:31:55.238Z,3.98
2022-12-05T06:32:55.091Z,3.96
2022-12-05T06:33:55.069Z,4.01
2022-12-05T06:34:55.077Z,3.98
2022-12-05T06:35:55.044Z,4.02
2022-12-05T06:36:55.067Z,4.02
2022-12-05T06:37:55.023Z,4.01
2022-12-05T06:38:55.031Z,4.01
2022-12-05T06:39:55.119Z,4.01
2022-12-05T06:40:55.041Z,3.98
2022-12-05T06:41:54.997Z,3.98
2022-12-05T06:42:55.020Z,3.98
2022-12-05T06:44:00.113Z,3.95
2022-12-05T06:44:54.923Z,3.94
2022-12-05T06:45:54.993Z,3.95
2022-12-05T06:46:54.886Z,3.95
2022-12-05T06:47:54.866Z,3.98
2022-12-05T06:48:54.938Z,3.98
2022-12-05T06:49:55.124Z,4.01
2022-12-05T06:50:54.895Z,3.99
2022-12-05T06:51:54.869Z,4.02
2022-12-05T06:52:54.836Z,4.01
2022-12-05T06:53:54.820Z,4.01
2022-12-05T06:54:54.818Z,4.02
2022-12-05T06:55:54.791Z,4.02
2022-12-05T06:56:54.836Z,4.05
2022-12-05T06:57:54.768Z,4.02
2022-12-05T06:58:54.774Z,4.04
2022-12-05T06:59:54.834Z,4.05
2022-12-05T07:00:54.820Z,4.02
2022-12-05T07:01:54.776Z,4.05
2022-12-05T07:02:54.754Z,4.05
2022-12-05T07:03:54.712Z,4.06
2022-12-05T07:04:54.705Z,4.06
2022-12-05T07:05:54.677Z,4.06
2022-12-05T07:06:54.719Z,4.05
2022-12-05T07:07:54.756Z,4.05
2022-12-05T07:08:54.668Z,4.06
2022-12-05T07:09:54.673Z,4.04
2022-12-05T07:10:54.668Z,4.04
2022-12-05T07:11:54.644Z,4.06
2022-12-05T07:12:54.644Z,4.08
2022-12-05T07:13:54.620Z,4.08
2022-12-05T07:14:54.623Z,4.12
2022-12-05T07:15:54.577Z,4.10
2022-12-05T07:16:54.630Z,4.08
2022-12-05T07:17:54.576Z,4.06
2022-12-05T07:18:54.569Z,4.06
2022-12-05T07:19:54.562Z,4.08
2022-12-05T07:21:11.340Z,4.06
2022-12-05T07:21:54.546Z,4.06
2022-12-05T07:22:54.538Z,4.08
2022-12-05T07:23:54.508Z,4.10
2022-12-05T07:24:54.496Z,4.10
2022-12-05T07:25:54.495Z,4.10
2022-12-05T07:26:54.491Z,4.10
2022-12-05T07:27:54.465Z,4.13
2022-12-05T07:28:54.507Z,4.12
2022-12-05T07:29:54.473Z,4.10
2022-12-05T07:30:54.440Z,4.12
2022-12-05T07:31:54.471Z,4.10
2022-12-05T07:32:54.441Z,4.12
2022-12-05T07:33:54.397Z,4.12
2022-12-05T07:34:55.740Z,4.13
2022-12-05T07:35:54.377Z,4.13
2022-12-05T07:36:54.377Z,4.13
2022-12-05T07:37:54.353Z,4.12
2022-12-05T07:38:54.361Z,4.12
2022-12-05T07:39:54.368Z,4.12
2022-12-05T07:40:54.362Z,4.13
2022-12-05T07:41:54.308Z,4.14
2022-12-05T07:42:54.323Z,4.16
2022-12-05T07:43:54.297Z,4.17
2022-12-05T07:44:54.337Z,4.19
2022-12-05T07:45:54.408Z,4.19
2022-12-05T07:46:54.301Z,4.19
2022-12-05T07:47:54.291Z,4.22
2022-12-05T07:48:54.253Z,4.19
2022-12-05T07:49:54.229Z,4.19
2022-12-05T07:50:54.271Z,4.19
2022-12-05T07:51:54.247Z,4.20
2022-12-05T07:52:54.212Z,4.20
2022-12-05T07:53:54.222Z,4.22
2022-12-05T07:54:54.187Z,4.22
2022-12-05T07:55:54.176Z,4.22
2022-12-05T07:56:54.181Z,4.23
2022-12-05T07:57:54.151Z,4.22
2022-12-05T07:58:54.149Z,4.24
2022-12-05T07:59:54.121Z,4.24
2022-12-05T08:00:54.173Z,4.24
2022-12-05T08:01:54.161Z,4.26
2022-12-05T08:02:54.201Z,4.30
2022-12-05T08:03:54.106Z,4.30
2022-12-05T08:04:54.131Z,4.30
2022-12-05T08:05:54.090Z,4.30
2022-12-05T08:06:54.090Z,4.28
2022-12-05T08:07:54.152Z,4.28
2022-12-05T08:08:54.046Z,4.24
2022-12-05T08:09:54.032Z,4.26
2022-12-05T08:10:54.046Z,4.28
2022-12-05T08:11:54.024Z,4.30
2022-12-05T08:12:54.029Z,4.28
2022-12-05T08:13:53.983Z,4.30
2022-12-05T08:14:54.004Z,4.30
2022-12-05T08:15:53.980Z,4.28
2022-12-05T08:16:54.016Z,4.28
2022-12-05T08:17:53.990Z,4.28
2022-12-05T08:18:53.955Z,4.31
2022-12-05T08:19:53.938Z,4.31
2022-12-05T08:20:53.963Z,4.31
2022-12-05T08:21:53.926Z,4.30
2022-12-05T08:22:53.925Z,4.31
2022-12-05T08:23:53.933Z,4.31
2022-12-05T08:24:56.392Z,4.32
2022-12-05T08:25:53.881Z,4.32
2022-12-05T08:26:53.864Z,4.35
2022-12-05T08:27:53.879Z,4.34
2022-12-05T08:28:53.864Z,4.34
2022-12-05T08:29:53.834Z,4.34
2022-12-05T08:30:53.892Z,4.35
2022-12-05T08:31:53.797Z,4.35
2022-12-05T08:32:53.802Z,4.37
2022-12-05T08:33:58.783Z,4.38
2022-12-05T08:34:53.793Z,4.38
2022-12-05T08:35:53.761Z,4.37
2022-12-05T08:36:53.764Z,4.37
2022-12-05T08:37:53.741Z,4.37
2022-12-05T08:38:53.737Z,4.38
2022-12-05T08:39:53.729Z,4.40
2022-12-05T08:40:53.737Z,4.38
2022-12-05T08:41:53.743Z,4.35
2022-12-05T08:42:53.753Z,4.37
2022-12-05T08:43:53.670Z,4.38
2022-12-05T08:44:53.708Z,4.37
2022-12-05T08:45:53.711Z,4.37
2022-12-05T08:46:53.663Z,4.38
2022-12-05T08:47:53.636Z,4.37
2022-12-05T08:48:53.706Z,4.37
2022-12-05T08:49:53.641Z,4.37
2022-12-05T08:50:53.650Z,4.35
2022-12-05T08:51:53.686Z,4.35
2022-12-05T08:52:53.592Z,4.35
2022-12-05T08:53:53.577Z,4.34
2022-12-05T08:54:53.586Z,4.35
2022-12-05T08:55:53.676Z,4.34
2022-12-05T08:56:53.575Z,4.37
2022-12-05T08:57:53.542Z,4.35
2022-12-05T08:58:53.562Z,4.35
2022-12-05T08:59:53.520Z,4.35
2022-12-05T09:00:53.693Z,4.35
2022-12-05T09:01:53.543Z,4.35
2022-12-05T09:02:53.561Z,4.38
2022-12-05T09:03:53.475Z,4.35
2022-12-05T09:04:54.166Z,4.35
2022-12-05T09:05:54.816Z,4.37
2022-12-05T09:06:53.467Z,4.38
2022-12-05T09:07:53.483Z,4.40
2022-12-05T09:08:53.452Z,4.40
2022-12-05T09:09:53.945Z,4.42
2022-12-05T09:10:53.416Z,4.44
2022-12-05T09:11:53.389Z,4.44
2022-12-05T09:12:53.427Z,4.45
2022-12-05T09:13:53.364Z,4.48
2022-12-05T09:14:53.374Z,4.45
2022-12-05T09:15:53.380Z,4.45
2022-12-05T09:16:53.368Z,4.42
2022-12-05T09:17:53.329Z,4.41
2022-12-05T09:18:53.373Z,4.42
2022-12-05T09:19:53.334Z,4.44
2022-12-05T09:20:53.297Z,4.45
2022-12-05T09:21:53.355Z,4.45
2022-12-05T09:22:53.273Z,4.48
2022-12-05T09:23:53.293Z,4.48
2022-12-05T09:24:53.256Z,4.48
2022-12-05T09:25:53.291Z,4.50
2022-12-05T09:26:53.403Z,4.50
2022-12-05T09:27:53.244Z,4.50
2022-12-05T09:28:53.207Z,4.49
2022-12-05T09:29:53.230Z,4.50
2022-12-05T09:30:53.228Z,4.52
2022-12-05T09:31:53.197Z,4.53
2022-12-05T09:32:53.168Z,4.55
2022-12-05T09:33:53.213Z,4.56
2022-12-05T09:34:53.156Z,4.58
2022-12-05T09:35:53.171Z,4.58
2022-12-05T09:37:05.720Z,4.58
2022-12-05T09:37:53.140Z,4.58
2022-12-05T09:38:53.109Z,4.59
2022-12-05T09:39:53.224Z,4.59
2022-12-05T09:40:56.392Z,4.60
2022-12-05T09:41:53.103Z,4.63
2022-12-05T09:42:53.100Z,4.63
2022-12-05T09:43:53.124Z,4.66
2022-12-05T09:44:53.054Z,4.66
2022-12-05T09:45:53.189Z,4.67
2022-12-05T09:46:53.085Z,4.68
2022-12-05T09:47:53.057Z,4.70
2022-12-05T09:48:53.003Z,4.71
2022-12-05T09:49:53.018Z,4.67
2022-12-05T09:50:52.980Z,4.67
2022-12-05T09:51:55.377Z,4.67
2022-12-05T09:52:52.971Z,4.68
2022-12-05T09:53:53.018Z,4.70
2022-12-05T09:54:52.956Z,4.68
2022-12-05T09:55:52.959Z,4.66
2022-12-05T09:56:52.931Z,4.66
2022-12-05T09:57:53.183Z,4.66
2022-12-05T09:58:53.805Z,4.62
2022-12-05T09:59:52.912Z,4.63
2022-12-05T10:00:52.875Z,4.63
2022-12-05T10:01:52.975Z,4.63
2022-12-05T10:02:52.862Z,4.63
2022-12-05T10:03:52.891Z,4.63
2022-12-05T10:04:58.557Z,4.62
2022-12-05T10:05:52.901Z,4.63
2022-12-05T10:06:52.827Z,4.63
2022-12-05T10:07:52.868Z,4.66
2022-12-05T10:08:52.818Z,4.66
2022-12-05T10:09:52.806Z,4.68
2022-12-05T10:10:52.788Z,4.68
2022-12-05T10:11:52.799Z,4.68
2022-12-05T10:12:52.765Z,4.68
2022-12-05T10:13:52.770Z,4.68
2022-12-05T10:14:52.799Z,4.68
2022-12-05T10:15:56.982Z,4.67
2022-12-05T10:16:52.769Z,4.66
2022-12-05T10:17:52.721Z,4.68
2022-12-05T10:18:52.691Z,4.68
2022-12-05T10:19:52.707Z,4.68
2022-12-05T10:20:52.679Z,4.71
2022-12-05T10:21:52.711Z,4.73
2022-12-05T10:22:52.662Z,4.74
2022-12-05T10:23:59.907Z,4.74
2022-12-05T10:24:52.647Z,4.74
2022-12-05T10:25:52.631Z,4.74
2022-12-05T10:26:52.666Z,4.74
2022-12-05T10:27:52.625Z,4.75
2022-12-05T10:28:52.608Z,4.75
2022-12-05T10:29:52.590Z,4.75
2022-12-05T10:30:52.656Z,4.74
2022-12-05T10:31:52.608Z,4.74
2022-12-05T10:32:52.549Z,4.77
2022-12-05T10:33:52.563Z,4.78
2022-12-05T10:34:52.551Z,4.80
2022-12-05T10:35:52.549Z,4.82
2022-12-05T10:36:52.562Z,4.82
2022-12-05T10:37:52.528Z,4.82
2022-12-05T10:38:52.491Z,4.86
2022-12-05T10:39:52.498Z,4.86
2022-12-05T10:40:52.466Z,4.87
2022-12-05T10:41:52.471Z,4.87
2022-12-05T10:42:52.460Z,4.87
2022-12-05T10:43:52.446Z,4.87
2022-12-05T10:44:52.445Z,4.86
2022-12-05T10:45:52.458Z,4.86
2022-12-05T10:46:52.454Z,4.84
2022-12-05T10:47:52.405Z,4.86
2022-12-05T10:48:52.411Z,4.82
2022-12-05T10:49:52.378Z,4.87
2022-12-05T10:50:52.378Z,4.87
2022-12-05T10:51:52.376Z,4.89
2022-12-05T10:52:52.402Z,4.90
2022-12-05T10:53:52.355Z,4.92
2022-12-05T10:54:52.347Z,4.93
2022-12-05T10:56:28.125Z,4.93
2022-12-05T10:56:52.307Z,4.94
2022-12-05T10:57:52.313Z,4.97
2022-12-05T10:58:52.277Z,4.97
2022-12-05T10:59:52.285Z,5.00
2022-12-05T11:00:52.283Z,5.02
2022-12-05T11:01:52.302Z,5.00
2022-12-05T11:02:52.241Z,5.04
2022-12-05T11:03:52.241Z,5.04
2022-12-05T11:04:52.231Z,5.02
2022-12-05T11:05:52.222Z,5.02
2022-12-05T11:06:52.207Z,5.02
2022-12-05T11:07:52.220Z,5.00
2022-12-05T11:09:07.553Z,5.00
2022-12-05T11:09:52.183Z,5.00
2022-12-05T11:10:52.149Z,5.00
2022-12-05T11:11:52.187Z,5.02
2022-12-05T11:12:52.150Z,5.05
2022-12-05T11:13:52.145Z,5.05
2022-12-05T11:14:52.113Z,5.07
2022-12-05T11:15:55.581Z,5.08
2022-12-05T11:16:52.128Z,5.07
2022-12-05T11:17:52.102Z,5.10
2022-12-05T11:18:52.350Z,5.10
2022-12-05T11:19:52.091Z,5.10
2022-12-05T11:20:52.051Z,5.10
2022-12-05T11:21:52.092Z,5.10
2022-12-05T11:22:52.047Z,5.11
2022-12-05T11:23:52.048Z,5.10
2022-12-05T11:24:52.005Z,5.11
2022-12-05T11:25:52.018Z,5.11
2022-12-05T11:26:51.994Z,5.11
2022-12-05T11:27:51.983Z,5.10
2022-12-05T11:28:51.977Z,5.12
2022-12-05T11:29:51.960Z,5.14
2022-12-05T11:30:51.993Z,5.15
2022-12-05T11:31:51.951Z,5.14
2022-12-05T11:32:51.942Z,5.14
2022-12-05T11:33:51.939Z,5.14
2022-12-05T11:34:51.896Z,5.17
2022-12-05T11:35:51.894Z,5.14
2022-12-05T11:36:51.890Z,5.15
2022-12-05T11:37:51.884Z,5.18
2022-12-05T11:38:51.874Z,5.15
2022-12-05T11:39:51.881Z,5.17
2022-12-05T11:40:51.833Z,5.14
2022-12-05T11:41:51.942Z,5.14
2022-12-05T11:42:51.813Z,5.14
2022-12-05T11:43:51.835Z,5.12
2022-12-05T11:44:51.830Z,5.14
2022-12-05T11:45:51.799Z,5.14
2022-12-05T11:46:51.870Z,5.14
2022-12-05T11:47:51.797Z,5.15
2022-12-05T11:48:51.746Z,5.18
2022-12-05T11:49:51.739Z,5.20
2022-12-05T11:50:51.728Z,5.20
2022-12-05T11:51:51.774Z,5.21
2022-12-05T11:52:51.707Z,5.21
2022-12-05T11:53:51.727Z,5.20
2022-12-05T11:55:07.175Z,5.21
2022-12-05T11:55:51.688Z,5.21
2022-12-05T11:56:51.656Z,5.21
2022-12-05T11:57:52.716Z,5.21
2022-12-05T11:58:51.645Z,5.23
2022-12-05T11:59:51.635Z,5.23
2022-12-05T12:00:51.661Z,5.25
2022-12-05T12:01:51.690Z,5.28
2022-12-05T12:02:51.651Z,5.26
2022-12-05T12:03:51.655Z,5.28
2022-12-05T12:04:51.584Z,5.28
2022-12-05T12:05:51.611Z,5.26
2022-12-05T12:06:51.561Z,5.26
2022-12-05T12:07:51.627Z,5.26
2022-12-05T12:08:51.591Z,5.28
2022-12-05T12:09:51.563Z,5.25
2022-12-05T12:10:51.519Z,5.25
2022-12-05T12:11:51.602Z,5.21
2022-12-05T12:12:51.486Z,5.20
2022-12-05T12:13:51.515Z,5.21
2022-12-05T12:14:51.515Z,5.21
2022-12-05T12:15:51.516Z,5.20
2022-12-05T12:16:51.524Z,5.18
2022-12-05T12:17:51.454Z,5.20
2022-12-05T12:18:51.446Z,5.20
2022-12-05T12:19:51.455Z,5.17
2022-12-05T12:20:51.444Z,5.17
2022-12-05T12:21:51.529Z,5.15
2022-12-05T12:22:51.399Z,5.17
2022-12-05T12:23:51.402Z,5.18
2022-12-05T12:24:51.371Z,5.17
2022-12-05T12:25:51.378Z,5.17
2022-12-05T12:26:51.374Z,5.17
2022-12-05T12:27:51.353Z,5.17
2022-12-05T12:28:51.342Z,5.17
2022-12-05T12:29:51.353Z,5.18
2022-12-05T12:30:51.308Z,5.18
2022-12-05T12:31:51.499Z,5.17
2022-12-05T12:32:51.310Z,5.17
2022-12-05T12:33:51.313Z,5.17
2022-12-05T12:34:51.275Z,5.18
2022-12-05T12:35:51.265Z,5.17
2022-12-05T12:36:51.260Z,5.18
2022-12-05T12:37:51.273Z,5.17
2022-12-05T12:38:51.691Z,5.15
2022-12-05T12:39:51.220Z,5.15
2022-12-05T12:40:51.216Z,5.15
2022-12-05T12:41:51.209Z,5.15
2022-12-05T12:42:51.198Z,5.18
2022-12-05T12:43:54.006Z,5.18
2022-12-05T12:44:51.168Z,5.18
2022-12-05T12:45:51.190Z,5.17
2022-12-05T12:46:51.177Z,5.18
2022-12-05T12:47:51.149Z,5.20
2022-12-05T12:48:51.119Z,5.20
2022-12-05T12:49:51.133Z,5.18
2022-12-05T12:50:51.088Z,5.18
2022-12-05T12:51:51.094Z,5.18
2022-12-05T12:52:51.086Z,5.20
2022-12-05T12:53:51.086Z,5.17
2022-12-05T12:55:06.503Z,5.17
2022-12-05T12:55:51.102Z,5.15
2022-12-05T12:56:51.069Z,5.17
2022-12-05T12:57:51.046Z,5.17
2022-12-05T12:58:51.063Z,5.17
2022-12-05T12:59:51.020Z,5.15
2022-12-05T13:00:51.136Z,5.15
2022-12-05T13:01:51.042Z,5.15
2022-12-05T13:02:51.020Z,5.15
2022-12-05T13:03:51.846Z,5.17
2022-12-05T13:04:50.969Z,5.17
2022-12-05T13:05:50.945Z,5.17
2022-12-05T13:06:51.006Z,5.17
2022-12-05T13:07:50.982Z,5.15
2022-12-05T13:08:50.909Z,5.15
2022-12-05T13:09:51.957Z,5.15
2022-12-05T13:10:50.893Z,5.11
2022-12-05T13:11:50.926Z,5.11
2022-12-05T13:12:50.865Z,5.12
2022-12-05T13:13:50.874Z,5.14
2022-12-05T13:14:50.839Z,5.14
2022-12-05T13:15:50.853Z,5.14
2022-12-05T13:16:50.902Z,5.12
2022-12-05T13:17:50.858Z,5.12
2022-12-05T13:18:50.829Z,5.12
2022-12-05T13:19:50.819Z,5.11
2022-12-05T13:20:50.779Z,5.14
2022-12-05T13:21:50.784Z,5.14
2022-12-05T13:22:50.757Z,5.15
2022-12-05T13:23:50.783Z,5.14
2022-12-05T13:24:50.753Z,5.15
2022-12-05T13:25:50.740Z,5.18
2022-12-05T13:26:50.738Z,5.17
2022-12-05T13:27:50.740Z,5.20
2022-12-05T13:28:50.708Z,5.18
2022-12-05T13:29:50.702Z,5.21
2022-12-05T13:30:50.685Z,5.23
2022-12-05T13:31:50.751Z,5.23
2022-12-05T13:32:50.647Z,5.25
2022-12-05T13:33:50.704Z,5.25
2022-12-05T13:34:50.643Z,5.26
2022-12-05T13:35:50.635Z,5.26
2022-12-05T13:36:50.633Z,5.28
2022-12-05T13:37:50.593Z,5.28
2022-12-05T13:38:50.601Z,5.29
2022-12-05T13:39:50.597Z,5.28
2022-12-05T13:40:50.585Z,5.29
2022-12-05T13:41:50.556Z,5.29
2022-12-05T13:42:50.558Z,5.28
2022-12-05T13:44:04.953Z,5.28
2022-12-05T13:44:50.549Z,5.29
2022-12-05T13:45:50.595Z,5.30
2022-12-05T13:46:50.521Z,5.32
2022-12-05T13:47:50.531Z,5.33
2022-12-05T13:48:50.501Z,5.32
2022-12-05T13:49:50.472Z,5.32
2022-12-05T13:50:50.483Z,5.33
2022-12-05T13:51:50.464Z,5.33
2022-12-05T13:52:50.468Z,5.32
2022-12-05T13:53:50.432Z,5.33
2022-12-05T13:54:50.477Z,5.33
2022-12-05T13:55:50.403Z,5.33
2022-12-05T13:56:50.420Z,5.35
2022-12-05T13:57:50.423Z,5.35
2022-12-05T13:58:50.430Z,5.36
2022-12-05T13:59:50.375Z,5.33
2022-12-05T14:00:50.439Z,5.36
2022-12-05T14:01:55.682Z,5.36
2022-12-05T14:02:50.416Z,5.36
2022-12-05T14:03:50.329Z,5.36
2022-12-05T14:04:50.503Z,5.39
2022-12-05T14:05:50.305Z,5.41
2022-12-05T14:06:50.355Z,5.41
2022-12-05T14:07:50.319Z,5.43
2022-12-05T14:08:50.309Z,5.39
2022-12-05T14:09:50.261Z,5.41
2022-12-05T14:10:50.274Z,5.39
2022-12-05T14:11:50.250Z,5.39
2022-12-05T14:12:50.286Z,5.43
2022-12-05T14:13:50.279Z,5.43
2022-12-05T14:14:50.245Z,5.43
2022-12-05T14:15:50.201Z,5.43
2022-12-05T14:16:50.291Z,5.46
2022-12-05T14:17:50.193Z,5.44
2022-12-05T14:18:50.221Z,5.47
2022-12-05T14:19:50.173Z,5.47
2022-12-05T14:20:50.191Z,5.48
2022-12-05T14:21:50.138Z,5.47
2022-12-05T14:22:50.162Z,5.48
2022-12-05T14:23:50.115Z,5.47
2022-12-05T14:24:50.140Z,5.44
2022-12-05T14:25:58.126Z,5.41
2022-12-05T14:26:50.098Z,5.43
2022-12-05T14:27:50.082Z,5.39
2022-12-05T14:28:50.074Z,5.43
2022-12-05T14:29:50.066Z,5.43
2022-12-05T14:30:50.186Z,5.43
2022-12-05T14:31:50.041Z,5.39
2022-12-05T14:32:50.041Z,5.41
2022-12-05T14:33:50.013Z,5.41
2022-12-05T14:34:50.015Z,5.41
2022-12-05T14:35:50.003Z,5.43
2022-12-05T14:36:49.991Z,5.43
2022-12-05T14:37:50.176Z,5.43
2022-12-05T14:38:49.970Z,5.44
2022-12-05T14:39:49.960Z,5.44
2022-12-05T14:40:49.954Z,5.44
2022-12-05T14:41:49.960Z,5.43
2022-12-05T14:42:49.930Z,5.46
2022-12-05T14:43:49.901Z,5.46
2022-12-05T14:44:49.930Z,5.47
2022-12-05T14:45:49.973Z,5.44
2022-12-05T14:46:49.904Z,5.47
2022-12-05T14:47:49.898Z,5.46
2022-12-05T14:48:49.913Z,5.47
2022-12-05T14:49:49.848Z,5.47
2022-12-05T14:50:49.863Z,5.48
2022-12-05T14:51:49.942Z,5.50
2022-12-05T14:52:49.829Z,5.47
2022-12-05T14:53:49.827Z,5.48
2022-12-05T14:54:49.808Z,5.50
2022-12-05T14:55:49.791Z,5.51
2022-12-05T14:56:50.001Z,5.48
2022-12-05T14:57:49.769Z,5.51
2022-12-05T14:58:49.835Z,5.50
2022-12-05T14:59:49.754Z,5.50
2022-12-05T15:00:49.748Z,5.48
2022-12-05T15:01:49.793Z,5.48
2022-12-05T15:02:49.720Z,5.46
2022-12-05T15:03:49.813Z,5.47
2022-12-05T15:04:49.790Z,5.47
2022-12-05T15:05:49.675Z,5.41
2022-12-05T15:06:49.693Z,5.43
2022-12-05T15:07:49.697Z,5.43
2022-12-05T15:08:49.653Z,5.43
2022-12-05T15:09:49.647Z,5.43
2022-12-05T15:10:49.648Z,5.43
2022-12-05T15:11:49.681Z,5.43
2022-12-05T15:12:49.623Z,5.41
2022-12-05T15:13:49.590Z,5.41
2022-12-05T15:14:49.603Z,5.43
2022-12-05T15:15:49.652Z,5.39
2022-12-05T15:16:49.604Z,5.39
2022-12-05T15:17:49.561Z,5.41
2022-12-05T15:18:49.551Z,5.38
2022-12-05T15:19:49.536Z,5.36
2022-12-05T15:20:49.527Z,5.36
2022-12-05T15:21:50.205Z,5.36
2022-12-05T15:22:49.513Z,5.35
2022-12-05T15:23:49.517Z,5.36
2022-12-05T15:24:49.484Z,5.36
2022-12-05T15:25:53.344Z,5.36
2022-12-05T15:26:49.701Z,5.36
2022-12-05T15:27:49.442Z,5.33
2022-12-05T15:28:49.450Z,5.36
2022-12-05T15:29:49.444Z,5.38
2022-12-05T15:30:49.436Z,5.36
2022-12-05T15:31:49.527Z,5.38
2022-12-05T15:32:49.413Z,5.38
2022-12-05T15:33:49.377Z,5.39
2022-12-05T15:34:49.384Z,5.38
2022-12-05T15:35:49.365Z,5.39
2022-12-05T15:36:49.368Z,5.38
2022-12-05T15:37:49.359Z,5.39
2022-12-05T15:38:49.346Z,5.38
2022-12-05T15:39:49.315Z,5.38
2022-12-05T15:40:49.315Z,5.39
2022-12-05T15:41:49.290Z,5.39
2022-12-05T15:42:49.306Z,5.38
2022-12-05T15:43:49.301Z,5.39
2022-12-05T15:44:49.276Z,5.38
2022-12-05T15:45:49.256Z,5.41
2022-12-05T15:46:49.256Z,5.39
2022-12-05T15:47:49.262Z,5.43
2022-12-05T15:48:49.240Z,5.39
2022-12-05T15:49:49.213Z,5.43
2022-12-05T15:50:49.218Z,5.41
2022-12-05T15:51:49.246Z,5.41
2022-12-05T15:52:49.270Z,5.43
2022-12-05T15:53:49.231Z,5.43
2022-12-05T15:54:49.217Z,5.44
2022-12-05T15:55:49.195Z,5.43
2022-12-05T15:56:49.198Z,5.43
2022-12-05T15:57:49.201Z,5.44
2022-12-05T15:58:49.202Z,5.46
2022-12-05T15:59:49.178Z,5.44
2022-12-05T16:00:49.167Z,5.43
2022-12-05T16:01:49.154Z,5.44
2022-12-05T16:02:49.193Z,5.43
2022-12-05T16:03:49.134Z,5.46
2022-12-05T16:04:49.173Z,5.44
2022-12-05T16:05:49.102Z,5.46
2022-12-05T16:06:49.098Z,5.44
2022-12-05T16:07:49.096Z,5.46
2022-12-05T16:08:49.068Z,5.43
2022-12-05T16:09:49.055Z,5.44
2022-12-05T16:10:49.079Z,5.46
2022-12-05T16:11:49.050Z,5.46
2022-12-05T16:12:49.040Z,5.46
2022-12-05T16:13:49.017Z,5.47
2022-12-05T16:14:59.369Z,5.44
2022-12-05T16:15:52.606Z,5.44
2022-12-05T16:16:49.006Z,5.44
2022-12-05T16:17:48.978Z,5.43
2022-12-05T16:18:48.985Z,5.46
2022-12-05T16:19:48.956Z,5.46
2022-12-05T16:20:48.944Z,5.44
2022-12-05T16:21:48.941Z,5.46
2022-12-05T16:22:48.959Z,5.46
2022-12-05T16:23:48.904Z,5.46
2022-12-05T16:24:48.914Z,5.46
2022-12-05T16:25:48.928Z,5.47
2022-12-05T16:26:51.610Z,5.47
2022-12-05T16:27:48.873Z,5.48
2022-12-05T16:28:48.888Z,5.47
2022-12-05T16:29:48.852Z,5.48
2022-12-05T16:30:48.917Z,5.47
2022-12-05T16:31:48.871Z,5.48
2022-12-05T16:32:48.818Z,5.48
2022-12-05T16:33:48.847Z,5.48
2022-12-05T16:34:48.832Z,5.50
2022-12-05T16:35:48.781Z,5.50
2022-12-05T16:36:48.791Z,5.50
2022-12-05T16:37:48.766Z,5.50
2022-12-05T16:38:48.778Z,5.51
2022-12-05T16:39:48.771Z,5.51
2022-12-05T16:40:48.772Z,5.51
2022-12-05T16:41:48.734Z,5.51
2022-12-05T16:42:48.735Z,5.51
2022-12-05T16:43:48.716Z,5.50
2022-12-05T16:44:48.709Z,5.51
2022-12-05T16:45:48.692Z,5.51
2022-12-05T16:46:48.742Z,5.53
2022-12-05T16:47:48.650Z,5.51
2022-12-05T16:48:48.687Z,5.53
2022-12-05T16:49:48.626Z,5.53
2022-12-05T16:50:48.634Z,5.53
2022-12-05T16:51:48.619Z,5.54
2022-12-05T16:52:48.616Z,5.53
2022-12-05T16:53:48.623Z,5.51
2022-12-05T16:54:48.602Z,5.53
2022-12-05T16:55:48.561Z,5.50
2022-12-05T16:56:48.577Z,5.51
2022-12-05T16:57:48.542Z,5.51
2022-12-05T16:58:48.559Z,5.54
2022-12-05T16:59:48.527Z,5.51
2022-12-05T17:00:48.524Z,5.53
2022-12-05T17:01:48.578Z,5.54
2022-12-05T17:02:48.509Z,5.56
2022-12-05T17:03:48.572Z,5.54
2022-12-05T17:04:48.545Z,5.57
2022-12-05T17:05:48.586Z,5.57
2022-12-05T17:06:48.488Z,5.56
2022-12-05T17:07:48.524Z,5.56
2022-12-05T17:08:48.444Z,5.54